createdAt,value
2023-05-21T00:01:18.222Z,84.97
2023-05-21T00:06:26.579Z,84.57
2023-05-21T00:11:34.745Z,84.76
2023-05-21T00:16:43.528Z,85.05
2023-05-21T00:21:51.718Z,85.37
2023-05-21T00:26:59.687Z,84.79
2023-05-21T00:32:08.801Z,84.90
2023-05-21T00:37:17.033Z,85.14
2023-05-21T00:42:27.547Z,84.54
2023-05-21T00:47:35.920Z,84.66
2023-05-21T00:52:45.876Z,84.78
2023-05-21T00:57:54.292Z,84.25
2023-05-21T01:03:02.407Z,84.07
2023-05-21T01:08:10.573Z,84.11
2023-05-21T01:13:20.698Z,83.80
2023-05-21T01:18:29.970Z,83.80
2023-05-21T01:23:38.396Z,83.35
2023-05-21T01:28:47.186Z,83.83
2023-05-21T01:33:58.179Z,83.74
2023-05-21T01:39:11.104Z,83.74
2023-05-21T01:44:22.035Z,84.20
2023-05-21T01:49:30.861Z,84.27
2023-05-21T01:54:38.894Z,84.11
2023-05-21T01:59:47.927Z,83.96
2023-05-21T02:04:55.962Z,83.50
2023-05-21T02:10:04.360Z,83.93
2023-05-21T02:15:14.501Z,83.92
2023-05-21T02:20:23.058Z,83.41
2023-05-21T02:25:31.151Z,83.81
2023-05-21T02:30:39.131Z,83.68
2023-05-21T02:35:47.207Z,83.80
2023-05-21T02:40:55.247Z,83.65
2023-05-21T02:46:03.274Z,84.26
2023-05-21T02:51:11.608Z,84.37
2023-05-21T02:56:20.195Z,84.33
2023-05-21T03:01:28.225Z,84.53
2023-05-21T03:06:37.078Z,84.37
2023-05-21T03:11:45.802Z,84.65
2023-05-21T03:16:53.960Z,84.76
2023-05-21T03:22:02.506Z,85.10
2023-05-21T03:27:10.984Z,84.92
2023-05-21T03:32:19.053Z,84.83
2023-05-21T03:37:27.254Z,84.76
2023-05-21T03:42:35.250Z,84.91
2023-05-21T03:47:43.286Z,85.39
2023-05-21T03:52:51.373Z,85.14
2023-05-21T03:57:59.425Z,85.38
2023-05-21T04:03:07.798Z,85.81
2023-05-21T04:08:16.202Z,85.67
2023-05-21T04:13:24.396Z,86.34
2023-05-21T04:18:34.343Z,87.81
2023-05-21T04:23:42.396Z,87.46
2023-05-21T04:28:50.763Z,86.63
2023-05-21T04:33:59.540Z,86.12
2023-05-21T04:39:07.737Z,85.14
2023-05-21T04:44:15.987Z,84.38
2023-05-21T04:49:24.060Z,83.04
2023-05-21T04:54:32.330Z,81.69
2023-05-21T04:59:41.527Z,80.11
2023-05-21T05:04:49.525Z,77.88
2023-05-21T05:09:57.644Z,77.38
2023-05-21T05:15:07.604Z,76.26
2023-05-21T05:20:15.802Z,75.39
2023-05-21T05:25:26.057Z,74.49
2023-05-21T05:30:34.073Z,73.38
2023-05-21T05:36:04.989Z,71.90
2023-05-21T05:41:41.113Z,70.86
2023-05-21T05:46:52.669Z,70.12
2023-05-21T05:52:01.359Z,70.52
2023-05-21T05:57:09.550Z,69.07
2023-05-21T06:02:17.789Z,67.82
2023-05-21T06:07:25.998Z,67.19
2023-05-21T06:12:34.269Z,66.53
2023-05-21T06:17:42.405Z,65.49
2023-05-21T06:22:50.466Z,65.24
2023-05-21T06:27:58.603Z,63.13
2023-05-21T06:33:07.131Z,62.31
2023-05-21T06:38:15.282Z,62.89
2023-05-21T06:43:23.406Z,61.06
2023-05-21T06:48:31.412Z,61.02
2023-05-21T06:53:39.612Z,59.72
2023-05-21T06:58:47.727Z,58.29
2023-05-21T07:03:55.808Z,57.46
2023-05-21T07:09:03.969Z,56.19
2023-05-21T07:14:12.706Z,56.03
2023-05-21T07:19:20.881Z,55.06
2023-05-21T07:24:29.081Z,54.95
2023-05-21T07:29:37.491Z,55.05
2023-05-21T07:34:45.466Z,53.87
2023-05-21T07:39:53.480Z,52.35
2023-05-21T07:45:02.333Z,52.35
2023-05-21T07:50:11.982Z,51.01
2023-05-21T07:55:20.727Z,50.27
2023-05-21T08:00:28.949Z,49.50
2023-05-21T08:05:37.158Z,48.98
2023-05-21T08:10:45.431Z,49.45
2023-05-21T08:15:53.731Z,48.64
2023-05-21T08:21:01.829Z,47.10
2023-05-21T08:26:10.038Z,46.60
2023-05-21T08:31:19.212Z,45.81
2023-05-21T08:36:27.271Z,45.15
2023-05-21T08:41:38.366Z,44.49
2023-05-21T08:46:50.882Z,42.50
2023-05-21T08:51:59.937Z,41.30
2023-05-21T08:57:08.778Z,40.90
2023-05-21T09:02:18.414Z,40.42
2023-05-21T09:07:29.322Z,39.29
2023-05-21T09:12:37.589Z,38.99
2023-05-21T09:17:49.288Z,39.44
2023-05-21T09:22:57.568Z,40.06
2023-05-21T09:28:12.316Z,38.29
2023-05-21T09:33:29.471Z,38.02
2023-05-21T09:38:37.973Z,38.02
2023-05-21T09:43:46.456Z,37.26
2023-05-21T09:48:54.478Z,36.45
2023-05-21T09:54:02.469Z,36.54
2023-05-21T09:59:11.053Z,36.60
2023-05-21T10:04:20.128Z,36.31
2023-05-21T10:09:29.773Z,35.24
2023-05-21T10:14:38.570Z,34.81
2023-05-21T10:19:47.796Z,34.80
2023-05-21T10:25:00.184Z,34.13
2023-05-21T10:30:10.369Z,33.36
2023-05-21T10:35:19.698Z,32.20
2023-05-21T10:40:28.652Z,31.74
2023-05-21T10:45:55.057Z,31.62
2023-05-21T10:51:22.193Z,32.72
2023-05-21T10:56:37.778Z,31.72
2023-05-21T11:01:46.599Z,31.72
2023-05-21T11:06:54.842Z,31.53
2023-05-21T11:12:04.828Z,31.43
2023-05-21T11:17:17.210Z,32.15
2023-05-21T11:22:26.872Z,32.28
2023-05-21T11:27:37.358Z,32.14
2023-05-21T11:33:20.786Z,31.01
2023-05-21T11:38:32.252Z,31.70
2023-05-21T11:43:44.928Z,30.62
2023-05-21T11:48:53.840Z,30.59
2023-05-21T11:54:02.231Z,30.09
2023-05-21T11:59:18.817Z,30.51
2023-05-21T12:04:30.430Z,30.94
2023-05-21T12:09:43.577Z,30.95
2023-05-21T12:14:54.157Z,30.58
2023-05-21T12:20:07.136Z,31.48
2023-05-21T12:25:15.286Z,31.56
2023-05-21T12:30:23.448Z,31.83
2023-05-21T12:35:33.247Z,32.48
2023-05-21T12:40:42.919Z,31.86
2023-05-21T12:45:51.027Z,31.44
2023-05-21T12:51:01.783Z,32.19
2023-05-21T12:56:13.993Z,32.12
2023-05-21T13:01:24.552Z,31.54
2023-05-21T13:06:42.500Z,31.41
2023-05-21T13:11:50.583Z,31.99
2023-05-21T13:16:58.739Z,30.84
2023-05-21T13:22:07.418Z,31.13
2023-05-21T13:27:15.412Z,31.17
2023-05-21T13:32:23.574Z,31.30
2023-05-21T13:37:31.907Z,31.04
2023-05-21T13:42:40.450Z,29.51
2023-05-21T13:48:01.378Z,30.28
2023-05-21T13:53:12.583Z,30.89
2023-05-21T13:58:44.167Z,31.18
2023-05-21T14:04:09.548Z,31.06
2023-05-21T14:09:21.487Z,31.79
2023-05-21T14:14:29.533Z,31.98
2023-05-21T14:19:37.769Z,32.70
2023-05-21T14:24:47.066Z,32.70
2023-05-21T14:29:55.047Z,32.78
2023-05-21T14:35:03.007Z,32.24
2023-05-21T14:40:12.807Z,32.72
2023-05-21T14:45:21.141Z,32.72
2023-05-21T14:50:29.352Z,33.19
2023-05-21T14:55:38.743Z,33.62
2023-05-21T15:00:47.014Z,33.40
2023-05-21T15:05:54.994Z,33.76
2023-05-21T15:11:03.032Z,34.03
2023-05-21T15:16:11.073Z,33.88
2023-05-21T15:21:19.092Z,34.12
2023-05-21T15:26:27.125Z,34.17
2023-05-21T15:31:35.727Z,34.76
2023-05-21T15:36:43.749Z,34.50
2023-05-21T15:41:53.738Z,33.98
2023-05-21T15:47:01.982Z,33.76
2023-05-21T15:52:10.521Z,34.15
2023-05-21T15:57:18.550Z,33.89
2023-05-21T16:02:26.871Z,34.37
2023-05-21T16:07:38.418Z,34.82
2023-05-21T16:12:46.597Z,35.48
2023-05-21T16:17:54.772Z,34.94
2023-05-21T16:23:03.736Z,34.90
2023-05-21T16:28:12.351Z,35.24
2023-05-21T16:33:20.625Z,35.74
2023-05-21T16:38:28.671Z,35.82
2023-05-21T16:43:37.424Z,36.05
2023-05-21T16:48:45.389Z,36.56
2023-05-21T16:53:53.405Z,36.81
2023-05-21T16:59:01.414Z,37.92
2023-05-21T17:04:09.708Z,37.99
2023-05-21T17:09:18.877Z,38.26
2023-05-21T17:14:34.326Z,38.70
2023-05-21T17:19:44.905Z,39.05
2023-05-21T17:24:53.277Z,39.63
2023-05-21T17:30:01.383Z,40.26
2023-05-21T17:35:11.169Z,40.30
2023-05-21T17:40:21.419Z,39.73
2023-05-21T17:45:29.616Z,39.74
2023-05-21T17:50:37.616Z,39.50
2023-05-21T17:55:45.585Z,40.03
2023-05-21T18:00:53.659Z,39.96
2023-05-21T18:06:01.860Z,40.73
2023-05-21T18:11:11.289Z,41.03
2023-05-21T18:16:22.223Z,41.86
2023-05-21T18:21:33.113Z,43.08
2023-05-21T18:26:41.078Z,43.33
2023-05-21T18:31:49.263Z,44.11
2023-05-21T18:36:59.123Z,44.79
2023-05-21T18:42:13.277Z,45.31
2023-05-21T18:47:22.927Z,45.55
2023-05-21T18:52:31.106Z,46.16
2023-05-21T18:57:39.160Z,46.62
2023-05-21T19:02:47.584Z,47.96
2023-05-21T19:07:57.873Z,49.81
2023-05-21T19:13:07.304Z,50.78
2023-05-21T19:18:17.281Z,51.35
2023-05-21T19:23:25.824Z,52.28
2023-05-21T19:28:33.889Z,52.93
2023-05-21T19:33:45.663Z,53.78
2023-05-21T19:39:00.191Z,54.81
2023-05-21T19:44:21.071Z,55.55
2023-05-21T19:49:29.414Z,56.35
2023-05-21T19:54:46.660Z,57.28
2023-05-21T19:59:58.579Z,57.46
2023-05-21T20:05:07.268Z,58.48
2023-05-21T20:10:15.833Z,59.08
2023-05-21T20:15:24.155Z,59.98
2023-05-21T20:20:34.890Z,60.56
2023-05-21T20:25:42.914Z,61.43
2023-05-21T20:30:58.687Z,62.18
2023-05-21T20:36:06.952Z,62.91
2023-05-21T20:41:15.178Z,63.69
2023-05-21T20:46:23.186Z,64.64
2023-05-21T20:51:31.257Z,64.96
2023-05-21T20:56:42.548Z,65.79
2023-05-21T21:01:52.723Z,66.76
2023-05-21T21:07:01.994Z,67.50
2023-05-21T21:12:24.642Z,68.24
2023-05-21T21:17:33.698Z,68.31
2023-05-21T21:22:41.956Z,68.21
2023-05-21T21:27:49.933Z,68.61
2023-05-21T21:32:58.655Z,68.97
2023-05-21T21:38:06.746Z,69.43
2023-05-21T21:43:14.732Z,69.77
2023-05-21T21:48:22.790Z,70.30
2023-05-21T21:53:30.836Z,70.27
2023-05-21T21:58:38.865Z,70.23
2023-05-21T22:03:47.126Z,70.38
2023-05-21T22:08:55.337Z,70.71
2023-05-21T22:14:04.553Z,70.42
2023-05-21T22:19:15.747Z,70.67
2023-05-21T22:24:32.074Z,71.04
2023-05-21T22:29:41.742Z,71.13
2023-05-21T22:34:49.740Z,71.88
2023-05-21T22:39:58.166Z,72.18
2023-05-21T22:45:07.591Z,72.56
2023-05-21T22:50:16.770Z,72.55
2023-05-21T22:55:24.797Z,72.43
2023-05-21T23:00:33.138Z,72.62
2023-05-21T23:05:41.420Z,73.13
2023-05-21T23:10:49.479Z,73.63
2023-05-21T23:15:59.096Z,74.07
2023-05-21T23:21:07.420Z,74.49
2023-05-21T23:26:15.598Z,74.16
2023-05-21T23:31:23.792Z,74.33
2023-05-21T23:36:40.302Z,73.85
2023-05-21T23:41:55.628Z,74.08
2023-05-21T23:47:03.674Z,74.43
2023-05-21T23:52:13.232Z,74.65
2023-05-21T23:57:21.745Z,75.20
